SBGW

Guaratinguetá Airport

Guaratinguetá, Brazil
TAF SBGW 210300Z 2106/2118 00000KT CAVOK TN16/2109Z TX27/2118Z PROB30 2108/2110 1500 BR BKN004 BECMG 2112/2114 25005KT RMK PER
Issued Valid From Valid To
Jul-21 @ 03:00 UTC
(7 hours ago)
Jul-21 @ 06:00 UTC
(4 hours ago)
Jul-21 @ 18:00 UTC
(in 8 hours)
Jul-21 @ 06:00 to Jul-21 @ 12:00
TAF SBGW 210300Z 2106/2118 00000KT CAVOK TN16/2109Z TX27/2118Z
Visibility Clouds
10,000+ meters
  • No significant clouds
Probable  (Probability 30%) Jul-21 @ 08:00 to Jul-21 @ 10:00
PROB30 2108/2110 1500 BR BKN004
Visibility Clouds Conditions
1,497 meters
  • Broken at 400' AGL
  • Mist
Becoming Jul-21 @ 12:00 to Jul-21 @ 18:00
BECMG 2112/2114 25005KT RMK PER
Wind Visibility Clouds
250° at 5 knots 10,000+ meters
  • No significant clouds
TAF SBGW 210300Z 2106/2118 00000KT CAVOK TN16/2109Z TX27/2118Z PROB30 2108/2110 1500 BR BKN004 BECMG 2112/2114 25005KT RMK PER
Issued Jul-21 @ 03:00 UTC
(7 hours ago)
Valid From Jul-21 @ 06:00 UTC
(4 hours ago)
Valid To Jul-21 @ 18:00 UTC
(in 8 hours)
Jul-21 @ 06:00 - Jul-21 @ 12:00
Clouds
  • No significant clouds
Probability 30% Probable Jul-21 @ 08:00 - Jul-21 @ 10:00
Clouds
  • Broken at 400' AGL
Conditions
  • Mist
Becoming Jul-21 @ 12:00 - Jul-21 @ 18:00
Wind Visibility
250° at 5 knots 10,000+ meters
Clouds
  • No significant clouds